Time;durP1;ratioP1;P1;durP2;ratioP2;P2;SDS_P1;SDS_P2;PMS_P1;PMS_P2;Temp;Humidity;BMP_temperature;BMP_pressure;BME280_temperature;BME280_humidity;BME280_pressure;Samples;Min_cycle;Max_cycle;Signal;HPM_P1;HPM_P2
2024/01/11 00:01:10;;;;;;;;;;;-5.80;99.90;;;;;;4940992;29;19926;-90
2024/01/11 00:07:04;;;;;;;;;;;-5.80;99.90;;;;;;4943138;29;19963;-90
2024/01/11 00:09:30;;;;;;;;;;;-5.70;99.90;;;;;;4908108;29;19914;-89
2024/01/11 00:11:55;;;;;;;;;;;-5.70;99.90;;;;;;4939735;29;19957;-90
2024/01/11 00:14:21;;;;;;;;;;;-5.60;99.90;;;;;;4939633;29;19942;-90
2024/01/11 00:16:46;;;;;;;;;;;-5.70;99.90;;;;;;4934715;29;19951;-90
2024/01/11 00:19:12;;;;;;;;;;;-5.70;99.90;;;;;;4939492;29;20001;-90
2024/01/11 00:21:37;;;;;;;;;;;-5.80;99.90;;;;;;4907277;29;19992;-91
2024/01/11 00:24:03;;;;;;;;;;;-5.90;99.90;;;;;;4939195;29;19921;-90
2024/01/11 00:26:29;;;;;;;;;;;-5.90;99.90;;;;;;4938867;29;19914;-90
2024/01/11 00:28:54;;;;;;;;;;;-6.00;99.90;;;;;;4939655;29;19987;-90
2024/01/11 00:31:20;;;;;;;;;;;-6.00;99.90;;;;;;4939133;29;19922;-90
2024/01/11 00:33:45;;;;;;;;;;;-6.00;99.90;;;;;;4923706;29;20435;-90
2024/01/11 00:36:16;;;;;;;;;;;-6.10;99.90;;;;;;4909828;29;20606;-90
2024/01/11 00:38:42;;;;;;;;;;;-6.20;99.90;;;;;;4930896;29;19914;-90
2024/01/11 00:41:07;;;;;;;;;;;-6.10;99.90;;;;;;4923069;29;19922;-90
2024/01/11 00:43:33;;;;;;;;;;;-6.00;99.90;;;;;;4938884;29;19915;-90
2024/01/11 00:45:59;;;;;;;;;;;-6.00;99.90;;;;;;4907457;29;19915;-90
2024/01/11 00:48:24;;;;;;;;;;;-6.00;99.90;;;;;;4929768;29;19937;-90
2024/01/11 00:50:50;;;;;;;;;;;-6.00;99.90;;;;;;4928211;29;19922;-90
2024/01/11 00:53:16;;;;;;;;;;;-6.00;99.90;;;;;;4906922;29;20403;-89
2024/01/11 00:55:43;;;;;;;;;;;-5.90;99.90;;;;;;4923231;29;19919;-90
2024/01/11 00:58:08;;;;;;;;;;;-5.70;99.90;;;;;;4907709;29;19915;-91
2024/01/11 01:00:34;;;;;;;;;;;-5.70;99.90;;;;;;4937381;29;20261;-90
2024/01/11 01:02:59;;;;;;;;;;;-5.80;99.90;;;;;;4916389;29;19930;-90
2024/01/11 01:05:25;;;;;;;;;;;-5.90;99.90;;;;;;4938436;29;20319;-89
2024/01/11 01:07:50;;;;;;;;;;;-5.90;99.90;;;;;;4923856;29;19995;-90
2024/01/11 01:10:16;;;;;;;;;;;-5.90;99.90;;;;;;4938156;29;19919;-90
2024/01/11 01:12:42;;;;;;;;;;;-5.80;99.90;;;;;;4938674;29;19914;-90
2024/01/11 01:15:07;;;;;;;;;;;-5.80;99.90;;;;;;4937702;29;19923;-89
2024/01/11 01:17:33;;;;;;;;;;;-5.90;99.90;;;;;;4945500;29;19923;-90
2024/01/11 01:19:59;;;;;;;;;;;-6.10;99.90;;;;;;4906619;29;20294;-90
2024/01/11 01:22:24;;;;;;;;;;;-6.10;99.90;;;;;;4939571;29;19929;-90
2024/01/11 01:24:50;;;;;;;;;;;-6.20;99.90;;;;;;4907168;29;19915;-89
2024/01/11 01:27:16;;;;;;;;;;;-6.20;99.90;;;;;;4938007;29;19926;-89
2024/01/11 01:29:41;;;;;;;;;;;-6.20;99.90;;;;;;4937504;29;19950;-90
2024/01/11 01:32:07;;;;;;;;;;;-6.30;99.90;;;;;;4937834;29;19966;-90
2024/01/11 01:34:33;;;;;;;;;;;-6.30;99.90;;;;;;4937792;29;20448;-90
2024/01/11 01:36:58;;;;;;;;;;;-6.20;99.90;;;;;;4936541;29;19954;-90
2024/01/11 01:39:24;;;;;;;;;;;-6.20;99.90;;;;;;4934306;28;19921;-90
2024/01/11 01:41:49;;;;;;;;;;;-6.20;99.90;;;;;;4937258;29;19966;-90
2024/01/11 01:44:15;;;;;;;;;;;-6.20;99.90;;;;;;4937567;29;20290;-90
2024/01/11 01:46:40;;;;;;;;;;;-6.20;99.90;;;;;;4914335;29;19914;-90
2024/01/11 01:49:06;;;;;;;;;;;-6.30;99.90;;;;;;4937940;29;19918;-90
2024/01/11 01:51:33;;;;;;;;;;;-6.30;99.90;;;;;;4944066;29;20337;-90
2024/01/11 01:53:59;;;;;;;;;;;-6.20;99.90;;;;;;4938485;29;19919;-90
2024/01/11 01:56:25;;;;;;;;;;;-6.20;99.90;;;;;;4942960;29;19911;-89
2024/01/11 01:58:51;;;;;;;;;;;-6.30;99.90;;;;;;4925200;29;19915;-90
2024/01/11 02:01:18;;;;;;;;;;;-6.30;99.90;;;;;;4941582;29;19971;-90
2024/01/11 02:03:45;;;;;;;;;;;-6.20;99.90;;;;;;4937211;29;20267;-88
2024/01/11 02:06:11;;;;;;;;;;;-6.20;99.90;;;;;;4936799;29;19967;-90
2024/01/11 02:08:37;;;;;;;;;;;-6.20;99.90;;;;;;4941539;29;20279;-90
2024/01/11 02:11:03;;;;;;;;;;;-6.20;99.90;;;;;;4905139;29;19954;-90
2024/01/11 02:13:28;;;;;;;;;;;-6.10;99.90;;;;;;4939119;29;19987;-89
2024/01/11 02:15:54;;;;;;;;;;;-6.10;99.90;;;;;;4905785;29;19919;-90
2024/01/11 02:18:19;;;;;;;;;;;-6.00;99.90;;;;;;4944802;29;20319;-90
2024/01/11 02:20:45;;;;;;;;;;;-6.10;99.90;;;;;;4903399;29;20453;-90
2024/01/11 02:23:19;;;;;;;;;;;-6.10;99.90;;;;;;4936265;29;19937;-90
2024/01/11 02:25:44;;;;;;;;;;;-6.10;99.90;;;;;;4904840;29;19970;-90
2024/01/11 02:28:11;;;;;;;;;;;-6.10;99.90;;;;;;4914650;29;19915;-90
2024/01/11 02:30:36;;;;;;;;;;;-6.10;99.90;;;;;;4913206;29;19933;-90
2024/01/11 02:33:36;;;;;;;;;;;-6.10;99.90;;;;;;4905043;29;19915;-90
2024/01/11 02:36:02;;;;;;;;;;;-6.10;99.90;;;;;;4918820;29;19919;-90
2024/01/11 02:38:28;;;;;;;;;;;-6.00;99.90;;;;;;4936841;29;19915;-90
2024/01/11 02:40:54;;;;;;;;;;;-6.10;99.90;;;;;;4933053;29;19923;-90
2024/01/11 02:43:20;;;;;;;;;;;-6.10;99.90;;;;;;4936600;29;19938;-90
2024/01/11 02:45:45;;;;;;;;;;;-6.10;99.90;;;;;;4936832;29;19915;-90
2024/01/11 02:51:39;;;;;;;;;;;-6.10;99.90;;;;;;4933987;29;20385;-90
2024/01/11 02:54:05;;;;;;;;;;;-6.10;99.90;;;;;;4912555;29;19919;-90
2024/01/11 02:56:30;;;;;;;;;;;-6.10;99.90;;;;;;4915521;29;20375;-90
2024/01/11 02:58:56;;;;;;;;;;;-6.10;99.90;;;;;;4935637;29;19919;-90
2024/01/11 03:01:21;;;;;;;;;;;-6.20;99.90;;;;;;4920651;29;20003;-90
2024/01/11 03:03:47;;;;;;;;;;;-6.20;99.90;;;;;;4944527;29;19958;-90
2024/01/11 03:06:13;;;;;;;;;;;-6.20;99.90;;;;;;4921041;29;19954;-90
2024/01/11 03:08:39;;;;;;;;;;;-6.20;99.90;;;;;;4936953;29;19921;-90
2024/01/11 03:11:05;;;;;;;;;;;-6.30;99.90;;;;;;4946484;29;19915;-90
2024/01/11 03:13:31;;;;;;;;;;;-6.30;99.90;;;;;;4943099;29;19914;-90
2024/01/11 03:15:57;;;;;;;;;;;-6.30;99.90;;;;;;4936246;29;19915;-89
2024/01/11 03:18:22;;;;;;;;;;;-6.30;99.90;;;;;;4936433;29;20014;-90
2024/01/11 03:20:48;;;;;;;;;;;-6.30;99.90;;;;;;4936350;29;19954;-90
2024/01/11 03:23:13;;;;;;;;;;;-6.30;99.90;;;;;;4921349;29;19915;-90
2024/01/11 03:25:39;;;;;;;;;;;-6.40;99.90;;;;;;4942240;29;19938;-90
2024/01/11 03:28:05;;;;;;;;;;;-6.30;99.90;;;;;;4925776;29;19915;-90
2024/01/11 03:30:30;;;;;;;;;;;-6.20;99.90;;;;;;4943163;29;19926;-90
2024/01/11 03:32:56;;;;;;;;;;;-6.20;99.90;;;;;;4936879;29;20275;-89
2024/01/11 03:35:21;;;;;;;;;;;-6.20;99.90;;;;;;4934827;29;20432;-89
2024/01/11 03:37:47;;;;;;;;;;;-6.20;99.90;;;;;;4901715;29;19911;-90
2024/01/11 03:40:14;;;;;;;;;;;-6.10;99.90;;;;;;4936199;29;19922;-90
2024/01/11 03:42:39;;;;;;;;;;;-6.10;99.90;;;;;;4942572;29;19914;-90
2024/01/11 03:45:05;;;;;;;;;;;-6.10;99.90;;;;;;4936511;29;20265;-90
2024/01/11 03:47:31;;;;;;;;;;;-6.00;99.90;;;;;;4941199;29;19915;-90
2024/01/11 03:49:56;;;;;;;;;;;-6.00;99.90;;;;;;4920972;29;20260;-90
2024/01/11 03:52:22;;;;;;;;;;;-6.10;99.90;;;;;;4939862;29;19915;-90
2024/01/11 03:54:48;;;;;;;;;;;-6.20;99.90;;;;;;4937288;29;19970;-90
2024/01/11 03:57:13;;;;;;;;;;;-6.30;99.90;;;;;;4913876;29;19929;-89
2024/01/11 03:59:39;;;;;;;;;;;-6.40;99.90;;;;;;4933928;28;19922;-90
2024/01/11 04:02:05;;;;;;;;;;;-6.30;99.90;;;;;;4915913;29;19915;-90
2024/01/11 04:04:31;;;;;;;;;;;-6.30;99.90;;;;;;4916939;29;19915;-90
2024/01/11 04:06:57;;;;;;;;;;;-6.30;99.90;;;;;;4944246;29;20017;-89
2024/01/11 04:09:22;;;;;;;;;;;-6.20;99.90;;;;;;4939631;29;19922;-90
2024/01/11 04:11:48;;;;;;;;;;;-6.20;99.90;;;;;;4939226;29;20387;-90
2024/01/11 04:14:13;;;;;;;;;;;-6.20;99.90;;;;;;4938758;29;19925;-90
2024/01/11 04:16:40;;;;;;;;;;;-6.30;99.90;;;;;;4938748;29;19969;-90
2024/01/11 04:19:05;;;;;;;;;;;-6.30;99.90;;;;;;4939026;29;19953;-89
2024/01/11 04:21:31;;;;;;;;;;;-6.50;99.90;;;;;;4942833;29;19949;-90
2024/01/11 04:23:57;;;;;;;;;;;-6.50;99.90;;;;;;4940351;29;19915;-90
2024/01/11 04:26:23;;;;;;;;;;;-6.50;99.90;;;;;;4938538;29;19919;-90
2024/01/11 04:28:49;;;;;;;;;;;-6.40;99.90;;;;;;4938544;29;19915;-90
2024/01/11 04:31:16;;;;;;;;;;;-6.40;99.90;;;;;;4923548;29;19915;-89
2024/01/11 04:33:42;;;;;;;;;;;-6.40;99.90;;;;;;4938928;29;19914;-89
2024/01/11 04:36:08;;;;;;;;;;;-6.30;99.90;;;;;;4938469;29;19915;-89
2024/01/11 04:39:02;;;;;;;;;;;-6.20;99.90;;;;;;4938275;29;19915;-88
2024/01/11 04:44:56;;;;;;;;;;;-6.10;99.90;;;;;;4939343;29;19981;-89
2024/01/11 04:47:22;;;;;;;;;;;-6.30;99.90;;;;;;4907702;29;19990;-90
2024/01/11 04:49:47;;;;;;;;;;;-6.30;99.90;;;;;;4938596;29;20397;-89
2024/01/11 04:52:13;;;;;;;;;;;-6.30;99.90;;;;;;4922722;29;19915;-89
2024/01/11 04:54:38;;;;;;;;;;;-6.30;99.90;;;;;;4938672;29;19915;-90
2024/01/11 04:57:05;;;;;;;;;;;-6.30;99.90;;;;;;4911214;29;19914;-89
2024/01/11 04:59:30;;;;;;;;;;;-6.30;99.90;;;;;;4942696;29;19922;-90
2024/01/11 05:01:56;;;;;;;;;;;-6.40;99.90;;;;;;4947762;29;19918;-90
2024/01/11 05:04:22;;;;;;;;;;;-6.50;99.90;;;;;;4946943;29;19962;-89
2024/01/11 05:06:47;;;;;;;;;;;-6.60;99.90;;;;;;4943958;29;20354;-90
2024/01/11 05:09:14;;;;;;;;;;;-6.60;99.90;;;;;;4938779;29;19954;-90
2024/01/11 05:11:39;;;;;;;;;;;-6.80;99.90;;;;;;4938287;29;20367;-90
2024/01/11 05:14:05;;;;;;;;;;;-6.90;99.90;;;;;;4938341;29;19918;-90
2024/01/11 05:16:30;;;;;;;;;;;-6.90;99.90;;;;;;4938647;29;19911;-90
2024/01/11 05:19:11;;;;;;;;;;;-6.90;99.90;;;;;;4937818;29;19926;-89
2024/01/11 05:21:37;;;;;;;;;;;-6.90;99.90;;;;;;4920116;29;19937;-90
2024/01/11 05:24:02;;;;;;;;;;;-6.90;99.90;;;;;;4906538;29;20537;-90
2024/01/11 05:26:28;;;;;;;;;;;-6.90;99.90;;;;;;4907479;29;19915;-90
2024/01/11 05:28:54;;;;;;;;;;;-6.90;99.90;;;;;;4938718;29;20010;-90
2024/01/11 05:31:19;;;;;;;;;;;-6.70;99.90;;;;;;4923833;29;19937;-89
2024/01/11 05:34:16;;;;;;;;;;;-6.60;99.90;;;;;;4937005;29;19911;-89
2024/01/11 05:36:41;;;;;;;;;;;-6.60;99.90;;;;;;4945148;29;19914;-90
2024/01/11 05:39:07;;;;;;;;;;;-6.60;99.90;;;;;;4934291;29;19915;-89
2024/01/11 05:41:33;;;;;;;;;;;-6.50;99.90;;;;;;4937132;29;19914;-89
2024/01/11 05:43:58;;;;;;;;;;;-6.50;99.90;;;;;;4938637;29;19911;-89
2024/01/11 05:46:24;;;;;;;;;;;-6.60;99.90;;;;;;4940307;29;19915;-89
2024/01/11 05:48:49;;;;;;;;;;;-6.70;99.90;;;;;;4946979;29;19922;-90
2024/01/11 05:51:15;;;;;;;;;;;-6.70;99.90;;;;;;4941124;29;19981;-89
2024/01/11 05:53:41;;;;;;;;;;;-6.70;99.90;;;;;;4943288;29;19921;-89
2024/01/11 05:56:07;;;;;;;;;;;-6.60;99.90;;;;;;4940375;29;19915;-89
2024/01/11 05:58:33;;;;;;;;;;;-6.50;99.90;;;;;;4929821;29;19914;-89
2024/01/11 06:00:59;;;;;;;;;;;-6.50;99.90;;;;;;4937749;29;19974;-90
2024/01/11 06:03:24;;;;;;;;;;;-6.30;99.90;;;;;;4912115;29;19957;-89
2024/01/11 06:05:50;;;;;;;;;;;-6.10;99.90;;;;;;4939601;29;19958;-90
2024/01/11 06:08:16;;;;;;;;;;;-6.00;99.90;;;;;;4905597;29;19919;-89
2024/01/11 06:10:42;;;;;;;;;;;-6.00;99.90;;;;;;4936747;29;19915;-89
2024/01/11 06:13:09;;;;;;;;;;;-6.00;99.90;;;;;;4911199;29;19922;-90
2024/01/11 06:15:35;;;;;;;;;;;-6.10;99.90;;;;;;4938472;29;19923;-89
2024/01/11 06:18:00;;;;;;;;;;;-6.20;99.90;;;;;;4942181;29;19965;-90
2024/01/11 06:20:26;;;;;;;;;;;-6.40;99.90;;;;;;4937907;29;19919;-90
2024/01/11 06:22:51;;;;;;;;;;;-6.40;99.90;;;;;;4935788;29;19921;-90
2024/01/11 06:25:18;;;;;;;;;;;-6.40;99.90;;;;;;4940823;29;19915;-90
2024/01/11 06:27:44;;;;;;;;;;;-6.50;99.90;;;;;;4936903;29;19918;-89
2024/01/11 06:33:13;;;;;;;;;;;-6.70;99.90;;;;;;4927062;29;19922;-90
2024/01/11 06:35:39;;;;;;;;;;;-6.90;99.90;;;;;;4929159;29;19956;-89
2024/01/11 06:38:05;;;;;;;;;;;-7.00;99.90;;;;;;4936320;29;20030;-90
2024/01/11 06:40:30;;;;;;;;;;;-7.00;99.90;;;;;;4902812;29;19950;-89
2024/01/11 06:42:56;;;;;;;;;;;-7.00;99.90;;;;;;4937664;29;19918;-90
2024/01/11 06:45:22;;;;;;;;;;;-7.00;99.90;;;;;;4904253;29;19915;-90
2024/01/11 06:47:48;;;;;;;;;;;-6.80;99.90;;;;;;4939275;29;20371;-89
2024/01/11 06:50:14;;;;;;;;;;;-6.60;99.90;;;;;;4905170;29;19918;-90
2024/01/11 06:52:40;;;;;;;;;;;-6.40;99.90;;;;;;4936921;29;19911;-89
2024/01/11 06:55:05;;;;;;;;;;;-6.30;99.90;;;;;;4920697;29;20039;-89
2024/01/11 06:57:31;;;;;;;;;;;-6.00;99.90;;;;;;4936262;29;19966;-90
2024/01/11 06:59:57;;;;;;;;;;;-6.00;99.90;;;;;;4915253;29;20399;-90
2024/01/11 07:02:22;;;;;;;;;;;-6.10;99.90;;;;;;4912656;29;19914;-89
2024/01/11 07:04:48;;;;;;;;;;;-6.10;99.90;;;;;;4938111;29;20027;-90
2024/01/11 07:07:14;;;;;;;;;;;-6.20;99.90;;;;;;4928024;29;19926;-89
2024/01/11 07:09:39;;;;;;;;;;;-6.10;99.90;;;;;;4904267;29;19914;-90
2024/01/11 07:12:05;;;;;;;;;;;-6.00;99.90;;;;;;4934891;29;19922;-89
2024/01/11 07:14:31;;;;;;;;;;;-5.90;99.90;;;;;;4911681;29;19934;-90
2024/01/11 07:16:57;;;;;;;;;;;-5.90;99.90;;;;;;4924785;29;19918;-89
2024/01/11 07:19:23;;;;;;;;;;;-5.90;99.90;;;;;;4934503;29;20367;-90
2024/01/11 07:21:48;;;;;;;;;;;-5.90;99.90;;;;;;4934679;29;20025;-86
2024/01/11 07:24:15;;;;;;;;;;;-5.90;99.90;;;;;;4905072;29;20383;-86
2024/01/11 07:26:41;;;;;;;;;;;-5.90;99.90;;;;;;4917524;29;19920;-85
2024/01/11 07:29:07;;;;;;;;;;;-5.80;99.90;;;;;;4906747;29;20006;-85
2024/01/11 07:31:32;;;;;;;;;;;-5.80;99.90;;;;;;4938035;29;19982;-86
2024/01/11 07:37:02;;;;;;;;;;;-5.70;99.90;;;;;;4933132;29;19918;-85
2024/01/11 07:39:27;;;;;;;;;;;-5.70;99.90;;;;;;4921014;29;19938;-85
2024/01/11 07:41:53;;;;;;;;;;;-5.60;99.90;;;;;;4937038;29;20006;-85
2024/01/11 07:44:20;;;;;;;;;;;-5.60;99.90;;;;;;4949539;29;19965;-85
2024/01/11 07:46:45;;;;;;;;;;;-5.60;99.90;;;;;;4938753;29;20033;-85
2024/01/11 07:49:11;;;;;;;;;;;-5.60;99.90;;;;;;4934592;29;19958;-87
2024/01/11 07:51:37;;;;;;;;;;;-5.70;99.90;;;;;;4934832;29;19914;-86
2024/01/11 07:54:02;;;;;;;;;;;-5.60;99.90;;;;;;4922947;29;20272;-86
2024/01/11 07:56:28;;;;;;;;;;;-5.50;99.90;;;;;;4923328;29;20748;-85
2024/01/11 07:58:54;;;;;;;;;;;-5.40;99.90;;;;;;4935835;28;19922;-85
2024/01/11 08:01:20;;;;;;;;;;;-5.30;99.90;;;;;;4903287;29;19922;-86
2024/01/11 08:03:45;;;;;;;;;;;-5.30;99.90;;;;;;4944160;29;19922;-85
2024/01/11 08:06:11;;;;;;;;;;;-5.30;99.90;;;;;;4903033;29;19919;-86
2024/01/11 08:08:38;;;;;;;;;;;-5.30;99.90;;;;;;4904116;29;19961;-85
2024/01/11 08:11:05;;;;;;;;;;;-5.30;99.90;;;;;;4920737;29;20353;-85
2024/01/11 08:13:31;;;;;;;;;;;-5.20;99.90;;;;;;4919267;29;19922;-85
2024/01/11 08:15:57;;;;;;;;;;;-5.20;99.90;;;;;;4935269;29;19931;-85
2024/01/11 08:18:23;;;;;;;;;;;-5.20;99.90;;;;;;4904951;29;19927;-85
2024/01/11 08:20:49;;;;;;;;;;;-5.10;99.90;;;;;;4935156;29;19950;-85
2024/01/11 08:23:15;;;;;;;;;;;-5.00;99.90;;;;;;4934938;29;20009;-85
2024/01/11 08:25:40;;;;;;;;;;;-5.10;99.90;;;;;;4906598;29;19923;-85
2024/01/11 08:28:07;;;;;;;;;;;-5.00;99.90;;;;;;4919199;29;20390;-85
2024/01/11 08:30:32;;;;;;;;;;;-4.80;99.90;;;;;;4924457;29;19919;-85
2024/01/11 08:32:58;;;;;;;;;;;-4.60;99.90;;;;;;4933478;29;19969;-86
2024/01/11 08:35:23;;;;;;;;;;;-4.10;99.90;;;;;;4905758;29;19982;-85
2024/01/11 08:37:49;;;;;;;;;;;-3.90;99.90;;;;;;4916806;29;19918;-86
2024/01/11 08:40:15;;;;;;;;;;;-3.90;99.90;;;;;;4934726;29;20598;-86
2024/01/11 08:42:42;;;;;;;;;;;-4.00;99.90;;;;;;4927234;29;19923;-86
2024/01/11 08:45:08;;;;;;;;;;;-4.10;99.90;;;;;;4945707;29;20038;-86
2024/01/11 08:47:34;;;;;;;;;;;-4.20;99.90;;;;;;4904274;29;20034;-85
2024/01/11 08:50:00;;;;;;;;;;;-4.20;99.90;;;;;;4936854;29;19922;-86
2024/01/11 08:52:26;;;;;;;;;;;-4.30;99.90;;;;;;4907485;29;20010;-86
2024/01/11 08:54:52;;;;;;;;;;;-4.30;99.90;;;;;;4904592;29;19926;-86
2024/01/11 08:57:22;;;;;;;;;;;-4.20;99.90;;;;;;4905929;29;19911;-85
2024/01/11 08:59:50;;;;;;;;;;;-4.30;99.90;;;;;;4909435;29;20319;-85
2024/01/11 09:02:16;;;;;;;;;;;-4.30;99.90;;;;;;4943702;28;20010;-86
2024/01/11 09:04:42;;;;;;;;;;;-4.20;99.90;;;;;;4933921;28;19930;-86
2024/01/11 09:07:07;;;;;;;;;;;-4.20;99.90;;;;;;4941374;29;20432;-85
2024/01/11 09:09:33;;;;;;;;;;;-4.10;99.90;;;;;;4934944;29;19919;-85
2024/01/11 09:11:59;;;;;;;;;;;-4.00;99.90;;;;;;4928780;29;20013;-85
2024/01/11 09:14:24;;;;;;;;;;;-3.90;99.90;;;;;;4905959;29;19970;-86
2024/01/11 09:16:50;;;;;;;;;;;-3.80;99.90;;;;;;4932926;29;19914;-85
2024/01/11 09:19:16;;;;;;;;;;;-3.80;99.90;;;;;;4930122;29;19930;-85
2024/01/11 09:21:42;;;;;;;;;;;-3.70;99.90;;;;;;4934973;29;19921;-85
2024/01/11 09:24:07;;;;;;;;;;;-3.70;99.90;;;;;;4933007;29;20359;-85
2024/01/11 09:26:33;;;;;;;;;;;-3.50;99.90;;;;;;4918786;29;20037;-85
2024/01/11 09:28:58;;;;;;;;;;;-3.40;99.90;;;;;;4933262;29;20383;-85
2024/01/11 09:31:24;;;;;;;;;;;-3.30;99.90;;;;;;4902080;29;19997;-85
2024/01/11 09:33:50;;;;;;;;;;;-3.10;99.90;;;;;;4921918;29;19958;-84
2024/01/11 09:36:16;;;;;;;;;;;-3.10;99.90;;;;;;4922163;29;20041;-84
2024/01/11 09:38:41;;;;;;;;;;;-3.00;99.90;;;;;;4929562;29;19919;-84
2024/01/11 09:41:10;;;;;;;;;;;-2.80;99.90;;;;;;4902509;29;19961;-84
2024/01/11 09:43:36;;;;;;;;;;;-2.80;99.90;;;;;;4908823;29;19919;-84
2024/01/11 09:46:15;;;;;;;;;;;-2.70;99.90;;;;;;4932843;29;20398;-84
2024/01/11 09:48:43;;;;;;;;;;;-2.60;99.90;;;;;;4918828;29;19919;-84
2024/01/11 09:51:10;;;;;;;;;;;-2.50;99.90;;;;;;4949120;29;19919;-85
2024/01/11 09:53:38;;;;;;;;;;;-2.30;99.90;;;;;;4906191;29;19919;-84
2024/01/11 09:58:48;;;;;;;;;;;-1.00;99.90;;;;;;4934493;29;19919;-84
2024/01/11 10:01:14;;;;;;;;;;;0.10;99.90;;;;;;4939465;29;20005;-85
2024/01/11 10:03:40;;;;;;;;;;;0.80;99.90;;;;;;4935258;29;19975;-84
2024/01/11 10:06:06;;;;;;;;;;;1.50;99.90;;;;;;4918116;29;20019;-84
2024/01/11 10:08:32;;;;;;;;;;;2.00;99.90;;;;;;4933504;29;19936;-84
2024/01/11 10:10:58;;;;;;;;;;;2.60;99.90;;;;;;4917312;29;19926;-85
2024/01/11 10:13:28;;;;;;;;;;;2.70;99.90;;;;;;4918276;29;19915;-85
2024/01/11 10:16:15;;;;;;;;;;;2.70;99.90;;;;;;4916961;29;19926;-85
2024/01/11 10:18:41;;;;;;;;;;;2.90;99.90;;;;;;4899210;29;20379;-85
2024/01/11 10:21:07;;;;;;;;;;;2.90;99.90;;;;;;4936533;29;20461;-84
2024/01/11 10:23:35;;;;;;;;;;;2.60;99.90;;;;;;4935731;29;19995;-85
2024/01/11 10:26:02;;;;;;;;;;;2.40;99.90;;;;;;4902242;29;20050;-85
2024/01/11 10:28:28;;;;;;;;;;;2.50;99.90;;;;;;4917433;29;20370;-84
2024/01/11 10:30:54;;;;;;;;;;;2.70;99.90;;;;;;4917042;29;20279;-85
2024/01/11 10:33:21;;;;;;;;;;;2.90;99.90;;;;;;4917413;29;19923;-85
2024/01/11 10:35:48;;;;;;;;;;;3.00;99.90;;;;;;4908616;29;19942;-85
2024/01/11 10:38:14;;;;;;;;;;;3.00;99.90;;;;;;4932628;29;20398;-85
2024/01/11 10:46:58;;;;;;;;;;;2.20;99.90;;;;;;4928996;29;19932;-84
2024/01/11 10:49:25;;;;;;;;;;;1.50;99.90;;;;;;4941265;28;19922;-84
2024/01/11 10:52:11;;;;;;;;;;;1.20;99.90;;;;;;4940598;29;20351;-84
2024/01/11 10:54:38;;;;;;;;;;;1.00;99.90;;;;;;4933122;29;19938;-84
2024/01/11 10:57:05;;;;;;;;;;;0.80;99.90;;;;;;4935257;29;20003;-84
2024/01/11 10:59:31;;;;;;;;;;;0.60;99.90;;;;;;4939533;29;19922;-84
2024/01/11 11:01:58;;;;;;;;;;;0.30;99.90;;;;;;4901362;29;19967;-84
2024/01/11 11:04:24;;;;;;;;;;;0.10;99.90;;;;;;4932341;29;19921;-84
2024/01/11 11:06:51;;;;;;;;;;;0.00;99.90;;;;;;4932947;29;19918;-84
2024/01/11 11:09:17;;;;;;;;;;;0.00;99.90;;;;;;4928017;29;19919;-85
2024/01/11 11:11:44;;;;;;;;;;;0.10;99.90;;;;;;4925427;29;20022;-84
2024/01/11 11:14:10;;;;;;;;;;;0.20;99.90;;;;;;4929662;29;19969;-84
2024/01/11 11:16:36;;;;;;;;;;;0.50;99.90;;;;;;4943701;29;19949;-84
2024/01/11 11:19:01;;;;;;;;;;;0.90;99.90;;;;;;4942476;29;20611;-84
2024/01/11 11:21:27;;;;;;;;;;;0.90;99.90;;;;;;4942589;29;19915;-83
2024/01/11 11:23:56;;;;;;;;;;;1.00;99.90;;;;;;4933537;29;19967;-84
2024/01/11 11:26:22;;;;;;;;;;;0.60;99.90;;;;;;4932073;29;20363;-84
2024/01/11 11:28:54;;;;;;;;;;;0.20;99.90;;;;;;4935585;28;19925;-84
2024/01/11 11:31:36;;;;;;;;;;;0.20;99.90;;;;;;4927670;29;19919;-84
2024/01/11 11:34:03;;;;;;;;;;;0.20;99.90;;;;;;4917881;29;20350;-84
2024/01/11 11:36:30;;;;;;;;;;;0.40;99.90;;;;;;4934899;29;19918;-84
2024/01/11 11:39:00;;;;;;;;;;;0.60;99.90;;;;;;4936597;29;20417;-84
2024/01/11 11:41:30;;;;;;;;;;;1.00;99.90;;;;;;4934481;29;19938;-84
2024/01/11 11:44:00;;;;;;;;;;;1.10;99.90;;;;;;4927056;29;19919;-83
2024/01/11 11:46:26;;;;;;;;;;;1.20;99.90;;;;;;4935500;29;19919;-84
2024/01/11 11:48:52;;;;;;;;;;;1.20;99.90;;;;;;4934686;29;19915;-84
2024/01/11 11:51:18;;;;;;;;;;;1.20;99.90;;;;;;4920232;29;19926;-84
2024/01/11 11:53:45;;;;;;;;;;;1.30;99.90;;;;;;4935064;29;19915;-84
2024/01/11 11:56:12;;;;;;;;;;;1.40;99.90;;;;;;4935325;29;19922;-84
2024/01/11 11:58:39;;;;;;;;;;;1.20;99.90;;;;;;4945039;29;20374;-84
2024/01/11 12:01:04;;;;;;;;;;;1.30;99.90;;;;;;4903627;29;19914;-84
2024/01/11 12:03:37;;;;;;;;;;;1.50;99.90;;;;;;4934678;29;20521;-84
2024/01/11 12:06:03;;;;;;;;;;;1.60;99.90;;;;;;4920006;29;19941;-84
2024/01/11 12:08:29;;;;;;;;;;;1.40;99.90;;;;;;4919829;29;19915;-84
2024/01/11 12:10:55;;;;;;;;;;;1.00;99.90;;;;;;4937078;29;19911;-85
2024/01/11 12:13:33;;;;;;;;;;;0.80;99.90;;;;;;4920217;29;20384;-84
2024/01/11 12:15:59;;;;;;;;;;;0.50;99.90;;;;;;4935221;29;20289;-83
2024/01/11 12:18:24;;;;;;;;;;;0.20;99.90;;;;;;4919637;29;19918;-83
2024/01/11 12:20:50;;;;;;;;;;;0.10;99.90;;;;;;4918538;29;19922;-84
2024/01/11 12:23:16;;;;;;;;;;;0.00;99.90;;;;;;4935258;29;19926;-84
2024/01/11 12:25:42;;;;;;;;;;;-0.10;99.90;;;;;;4937389;29;19930;-84
2024/01/11 12:28:07;;;;;;;;;;;-0.20;99.90;;;;;;4922288;29;19925;-83
2024/01/11 12:30:33;;;;;;;;;;;-0.30;99.90;;;;;;4935852;29;19922;-84
2024/01/11 12:33:01;;;;;;;;;;;-0.20;99.90;;;;;;4919970;29;20001;-84
2024/01/11 12:35:27;;;;;;;;;;;-0.20;99.90;;;;;;4935811;29;19926;-84
2024/01/11 12:38:05;;;;;;;;;;;-0.20;99.90;;;;;;4935760;29;19966;-84
2024/01/11 12:40:35;;;;;;;;;;;-0.20;99.90;;;;;;4927532;29;19953;-84
2024/01/11 12:43:00;;;;;;;;;;;-0.30;99.90;;;;;;4935954;29;20660;-84
2024/01/11 12:45:27;;;;;;;;;;;-0.30;99.90;;;;;;4920068;29;20026;-84
2024/01/11 12:47:54;;;;;;;;;;;-0.20;99.90;;;;;;4936533;29;19914;-84
2024/01/11 12:50:22;;;;;;;;;;;-0.30;99.90;;;;;;4950349;29;20291;-84
2024/01/11 12:53:03;;;;;;;;;;;-0.20;99.90;;;;;;4937858;28;19923;-84
2024/01/11 12:55:29;;;;;;;;;;;-0.20;99.90;;;;;;4931574;29;19919;-84
2024/01/11 12:58:09;;;;;;;;;;;-0.20;99.90;;;;;;4907458;29;19966;-84
2024/01/11 13:00:35;;;;;;;;;;;-0.20;99.90;;;;;;4930029;29;20264;-84
2024/01/11 13:03:01;;;;;;;;;;;-0.20;99.90;;;;;;4942232;29;20594;-84
2024/01/11 13:05:26;;;;;;;;;;;-0.20;99.90;;;;;;4943075;29;20002;-84
2024/01/11 13:07:52;;;;;;;;;;;-0.20;99.90;;;;;;4934680;29;19919;-84
2024/01/11 13:10:27;;;;;;;;;;;-0.10;99.90;;;;;;4929668;29;19949;-84
2024/01/11 13:12:54;;;;;;;;;;;0.00;99.90;;;;;;4916931;29;19938;-84
2024/01/11 13:15:19;;;;;;;;;;;-0.10;99.90;;;;;;4936964;29;20698;-84
2024/01/11 13:17:45;;;;;;;;;;;-0.10;99.90;;;;;;4933857;29;19922;-84
2024/01/11 13:20:10;;;;;;;;;;;-0.10;99.90;;;;;;4940446;29;19921;-84
2024/01/11 13:22:36;;;;;;;;;;;0.00;99.90;;;;;;4918218;29;20363;-84
2024/01/11 13:25:02;;;;;;;;;;;0.00;99.90;;;;;;4907523;29;19922;-84
2024/01/11 13:27:27;;;;;;;;;;;0.10;99.90;;;;;;4930485;29;19930;-84
2024/01/11 13:29:53;;;;;;;;;;;0.10;99.90;;;;;;4907409;29;20376;-84
2024/01/11 13:32:21;;;;;;;;;;;0.10;99.90;;;;;;4936133;29;19942;-85
2024/01/11 13:34:46;;;;;;;;;;;0.10;99.90;;;;;;4933147;29;20410;-84
2024/01/11 13:37:12;;;;;;;;;;;0.10;99.90;;;;;;4930940;29;20034;-85
2024/01/11 13:39:38;;;;;;;;;;;0.10;99.90;;;;;;4939434;28;19983;-84
2024/01/11 13:42:09;;;;;;;;;;;0.20;99.90;;;;;;4915833;29;22263;-84
2024/01/11 13:44:35;;;;;;;;;;;0.20;99.90;;;;;;4935824;29;19919;-84
2024/01/11 13:47:00;;;;;;;;;;;0.10;99.90;;;;;;4944583;29;19914;-84
2024/01/11 13:49:26;;;;;;;;;;;0.10;99.90;;;;;;4932774;29;19918;-85
2024/01/11 13:52:07;;;;;;;;;;;0.10;99.90;;;;;;4931607;29;20005;-85
2024/01/11 13:54:32;;;;;;;;;;;0.00;99.90;;;;;;4914479;29;20413;-85
2024/01/11 13:56:58;;;;;;;;;;;-0.10;99.90;;;;;;4932341;29;19918;-84
2024/01/11 13:59:24;;;;;;;;;;;-0.20;99.90;;;;;;4924266;29;20366;-84
2024/01/11 14:01:49;;;;;;;;;;;-0.20;99.90;;;;;;4931107;29;19922;-84
2024/01/11 14:04:15;;;;;;;;;;;-0.20;99.90;;;;;;4925778;29;20290;-84
2024/01/11 14:06:41;;;;;;;;;;;-0.20;99.90;;;;;;4920962;29;19937;-85
2024/01/11 14:09:09;;;;;;;;;;;-0.30;99.90;;;;;;4919993;29;19969;-85
2024/01/11 14:11:35;;;;;;;;;;;-0.30;99.90;;;;;;4937631;29;19915;-85
2024/01/11 14:14:07;;;;;;;;;;;-0.30;99.90;;;;;;4933822;29;19918;-84
2024/01/11 14:16:33;;;;;;;;;;;-0.30;99.90;;;;;;4912243;29;19966;-85
2024/01/11 14:18:59;;;;;;;;;;;-0.30;99.90;;;;;;4918069;29;20363;-84
2024/01/11 14:21:25;;;;;;;;;;;-0.30;99.90;;;;;;4918858;29;19926;-85
2024/01/11 14:23:51;;;;;;;;;;;-0.40;99.90;;;;;;4917711;29;19919;-85
2024/01/11 14:26:17;;;;;;;;;;;-0.40;99.90;;;;;;4936725;29;21469;-84
2024/01/11 14:28:42;;;;;;;;;;;-0.40;99.90;;;;;;4936516;29;19938;-84
2024/01/11 14:31:08;;;;;;;;;;;-0.40;99.90;;;;;;4929898;29;20000;-84
2024/01/11 14:33:36;;;;;;;;;;;-0.50;99.90;;;;;;4927836;29;19955;-85
2024/01/11 14:36:01;;;;;;;;;;;-0.50;99.90;;;;;;4911396;29;19919;-84
2024/01/11 14:38:27;;;;;;;;;;;-0.60;99.90;;;;;;4924179;29;19921;-84
2024/01/11 14:40:52;;;;;;;;;;;-0.70;99.90;;;;;;4944011;29;20534;-85